SKW5542 KPSP-KLAX
Flight info
| Callsign | SKW5542 |
|---|---|
| Flight time | N/A |
| Altitude | 16000 |
| Route | CATH1 PSP V388 LENHO SEAVU HLYWD1 |
| Aircraft | E75L/M-SDE3GILORVW/S |
Departure
| Time | 2026-05-06 01:54 |
|---|---|
| Airport | Palm Springs International Airport (KPSP) |
Arrival
| Time | N/A |
|---|---|
| Airport | Los Angeles International Airport (KLAX) |
| Time | Latitude | Longitude | Altitude | Speed | Heading |
|---|---|---|---|---|---|
| 2026-05-06 01:33 | 33.82100 | -116.50748 | 425 ft | 0 kts | 37° |
| 2026-05-06 01:43 | 33.82091 | -116.50757 | 420 ft | 4 kts | 43° |
| 2026-05-06 01:43 | 33.82076 | -116.50782 | 413 ft | 4 kts | 76° |
| 2026-05-06 01:43 | 33.82081 | -116.50808 | 418 ft | 2 kts | 136° |
| 2026-05-06 01:43 | 33.82085 | -116.50812 | 419 ft | 0 kts | 136° |
| 2026-05-06 01:47 | 33.82084 | -116.50812 | 419 ft | 0 kts | 136° |
| 2026-05-06 01:47 | 33.82070 | -116.50795 | 413 ft | 5 kts | 136° |
| 2026-05-06 01:47 | 33.82033 | -116.50753 | 422 ft | 9 kts | 136° |
| 2026-05-06 01:48 | 33.81980 | -116.50689 | 425 ft | 11 kts | 130° |
| 2026-05-06 01:48 | 33.81967 | -116.50593 | 425 ft | 13 kts | 90° |
| 2026-05-06 01:48 | 33.81967 | -116.50474 | 423 ft | 16 kts | 90° |
| 2026-05-06 01:48 | 33.81966 | -116.50338 | 414 ft | 13 kts | 90° |
| 2026-05-06 01:49 | 33.81966 | -116.50260 | 412 ft | 0 kts | 90° |
| 2026-05-06 01:49 | 33.81966 | -116.50241 | 411 ft | 5 kts | 90° |
| 2026-05-06 01:50 | 33.81966 | -116.50190 | 411 ft | 6 kts | 90° |
| 2026-05-06 01:50 | 33.81966 | -116.50167 | 412 ft | 0 kts | 90° |
| 2026-05-06 01:50 | 33.81966 | -116.50157 | 412 ft | 4 kts | 90° |
| 2026-05-06 01:50 | 33.81965 | -116.50104 | 412 ft | 7 kts | 100° |
| 2026-05-06 01:51 | 33.81934 | -116.50051 | 412 ft | 8 kts | 140° |
| 2026-05-06 01:51 | 33.81878 | -116.50002 | 410 ft | 11 kts | 144° |
| 2026-05-06 01:51 | 33.81853 | -116.49944 | 410 ft | 6 kts | 93° |
| 2026-05-06 01:51 | 33.81852 | -116.49911 | 410 ft | 0 kts | 90° |
| 2026-05-06 01:53 | 33.81852 | -116.49910 | 410 ft | 1 kts | 90° |
| 2026-05-06 01:53 | 33.81852 | -116.49875 | 410 ft | 8 kts | 90° |
| 2026-05-06 01:53 | 33.81874 | -116.49817 | 409 ft | 9 kts | 24° |
| 2026-05-06 01:54 | 33.81926 | -116.49838 | 408 ft | 9 kts | 323° |
| 2026-05-06 01:54 | 33.82103 | -116.49997 | 408 ft | 69 kts | 323° |
| 2026-05-06 01:54 | 33.82685 | -116.50514 | 425 ft | 137 kts | 322° |
| 2026-05-06 01:54 | 33.83498 | -116.51270 | 1091 ft | 153 kts | 321° |
| 2026-05-06 01:55 | 33.84357 | -116.52090 | 1881 ft | 166 kts | 319° |
| 2026-05-06 01:55 | 33.85310 | -116.52963 | 2649 ft | 177 kts | 319° |
| 2026-05-06 01:55 | 33.86333 | -116.53900 | 3337 ft | 191 kts | 319° |
| 2026-05-06 01:55 | 33.87396 | -116.54912 | 4063 ft | 198 kts | 317° |
| 2026-05-06 01:56 | 33.88495 | -116.55987 | 4731 ft | 206 kts | 317° |
| 2026-05-06 01:56 | 33.89720 | -116.56904 | 5443 ft | 213 kts | 336° |
| 2026-05-06 01:56 | 33.91210 | -116.57185 | 6139 ft | 222 kts | 358° |
| 2026-05-06 01:56 | 33.92710 | -116.56755 | 6771 ft | 231 kts | 22° |
| 2026-05-06 01:57 | 33.94007 | -116.55606 | 7621 ft | 238 kts | 45° |
| 2026-05-06 01:57 | 33.94913 | -116.53754 | 7898 ft | 272 kts | 73° |
| 2026-05-06 01:57 | 33.94936 | -116.51450 | 8647 ft | 285 kts | 99° |
| 2026-05-06 01:57 | 33.94144 | -116.49246 | 9587 ft | 293 kts | 122° |
| 2026-05-06 01:58 | 33.92720 | -116.47446 | 10302 ft | 306 kts | 135° |
| 2026-05-06 01:58 | 33.90968 | -116.45852 | 10756 ft | 323 kts | 144° |
| 2026-05-06 01:58 | 33.89044 | -116.44376 | 11360 ft | 334 kts | 146° |
| 2026-05-06 01:58 | 33.87113 | -116.42773 | 10862 ft | 340 kts | 134° |
| 2026-05-06 01:59 | 33.85770 | -116.40549 | 10741 ft | 319 kts | 115° |
| 2026-05-06 01:59 | 33.84761 | -116.38206 | 10734 ft | 315 kts | 113° |
| 2026-05-06 01:59 | 33.83805 | -116.35844 | 10741 ft | 319 kts | 112° |
| 2026-05-06 01:59 | 33.82833 | -116.33468 | 11409 ft | 319 kts | 113° |
| 2026-05-06 02:00 | 33.81816 | -116.31020 | 11104 ft | 334 kts | 113° |
| 2026-05-06 02:00 | 33.80784 | -116.28547 | 10955 ft | 316 kts | 113° |
| 2026-05-06 02:00 | 33.79786 | -116.26178 | 11261 ft | 327 kts | 115° |
| 2026-05-06 02:00 | 33.78949 | -116.23640 | 10762 ft | 322 kts | 97° |
| 2026-05-06 02:01 | 33.79013 | -116.21080 | 11130 ft | 304 kts | 74° |
| 2026-05-06 02:01 | 33.79865 | -116.18738 | 11451 ft | 307 kts | 52° |
| 2026-05-06 02:01 | 33.81427 | -116.16996 | 11794 ft | 311 kts | 29° |
| 2026-05-06 02:01 | 33.83445 | -116.16123 | 12140 ft | 307 kts | 6° |